sensor_id;sensor_type;location;lat;lon;timestamp;pressure;altitude;pressure_sealevel;temperature;humidity
50632;BME280;49583;45.590;-122.498;2023-12-20T00:01:50;100054.95;;;8.45;77.39
50632;BME280;49583;45.590;-122.498;2023-12-20T00:04:03;100049.77;;;8.42;77.20
50632;BME280;49583;45.590;-122.498;2023-12-20T00:06:15;100051.63;;;8.38;77.29
50632;BME280;49583;45.590;-122.498;2023-12-20T00:08:28;100057.59;;;8.37;77.44
50632;BME280;49583;45.590;-122.498;2023-12-20T00:10:41;100064.83;;;8.37;77.58
50632;BME280;49583;45.590;-122.498;2023-12-20T00:12:53;100070.67;;;8.36;77.39
50632;BME280;49583;45.590;-122.498;2023-12-20T00:15:06;100074.68;;;8.33;77.36
50632;BME280;49583;45.590;-122.498;2023-12-20T00:17:18;100078.18;;;8.30;77.24
50632;BME280;49583;45.590;-122.498;2023-12-20T00:19:31;100086.83;;;8.27;77.18
50632;BME280;49583;45.590;-122.498;2023-12-20T00:21:43;100088.29;;;8.23;77.13
50632;BME280;49583;45.590;-122.498;2023-12-20T00:23:56;100090.57;;;8.16;77.06
50632;BME280;49583;45.590;-122.498;2023-12-20T00:26:09;100095.21;;;8.11;77.07
50632;BME280;49583;45.590;-122.498;2023-12-20T00:28:21;100095.09;;;8.06;77.20
50632;BME280;49583;45.590;-122.498;2023-12-20T00:30:33;100099.75;;;8.04;77.46
50632;BME280;49583;45.590;-122.498;2023-12-20T00:32:46;100103.23;;;8.03;77.60
50632;BME280;49583;45.590;-122.498;2023-12-20T00:34:58;100105.90;;;8.01;77.37
50632;BME280;49583;45.590;-122.498;2023-12-20T00:37:11;100107.81;;;8.00;77.60
50632;BME280;49583;45.590;-122.498;2023-12-20T00:39:24;100110.92;;;8.00;77.73
50632;BME280;49583;45.590;-122.498;2023-12-20T00:41:36;100110.84;;;7.99;77.70
50632;BME280;49583;45.590;-122.498;2023-12-20T00:43:49;100112.74;;;8.01;77.83
50632;BME280;49583;45.590;-122.498;2023-12-20T00:46:01;100112.89;;;8.00;77.72
50632;BME280;49583;45.590;-122.498;2023-12-20T00:48:13;100114.48;;;7.98;77.81
50632;BME280;49583;45.590;-122.498;2023-12-20T00:50:26;100118.61;;;7.99;77.79
50632;BME280;49583;45.590;-122.498;2023-12-20T00:52:38;100124.60;;;7.98;77.88
50632;BME280;49583;45.590;-122.498;2023-12-20T00:54:51;100130.11;;;7.97;77.75
50632;BME280;49583;45.590;-122.498;2023-12-20T00:57:04;100137.90;;;7.97;77.68
50632;BME280;49583;45.590;-122.498;2023-12-20T00:59:16;100129.59;;;7.95;77.59
50632;BME280;49583;45.590;-122.498;2023-12-20T01:01:29;100130.35;;;7.94;77.38
50632;BME280;49583;45.590;-122.498;2023-12-20T01:03:43;100127.33;;;7.91;77.38
50632;BME280;49583;45.590;-122.498;2023-12-20T01:05:55;100126.91;;;7.91;77.54
50632;BME280;49583;45.590;-122.498;2023-12-20T01:08:09;100125.66;;;7.90;77.53
50632;BME280;49583;45.590;-122.498;2023-12-20T01:10:21;100127.91;;;7.90;77.55
50632;BME280;49583;45.590;-122.498;2023-12-20T01:12:33;100133.60;;;7.89;77.52
50632;BME280;49583;45.590;-122.498;2023-12-20T01:14:46;100136.66;;;7.87;77.35
50632;BME280;49583;45.590;-122.498;2023-12-20T01:16:58;100136.54;;;7.85;77.40
50632;BME280;49583;45.590;-122.498;2023-12-20T01:19:11;100136.48;;;7.83;77.40
50632;BME280;49583;45.590;-122.498;2023-12-20T01:21:23;100148.95;;;7.83;77.50
50632;BME280;49583;45.590;-122.498;2023-12-20T01:23:35;100154.20;;;7.81;77.53
50632;BME280;49583;45.590;-122.498;2023-12-20T01:25:48;100148.77;;;7.79;77.40
50632;BME280;49583;45.590;-122.498;2023-12-20T01:28:00;100145.95;;;7.78;77.70
50632;BME280;49583;45.590;-122.498;2023-12-20T01:30:15;100141.59;;;7.78;77.53
50632;BME280;49583;45.590;-122.498;2023-12-20T01:32:28;100143.07;;;7.78;77.74
50632;BME280;49583;45.590;-122.498;2023-12-20T01:34:40;100145.57;;;7.79;77.64
50632;BME280;49583;45.590;-122.498;2023-12-20T01:36:53;100147.03;;;7.81;77.80
50632;BME280;49583;45.590;-122.498;2023-12-20T01:39:05;100148.13;;;7.82;77.62
50632;BME280;49583;45.590;-122.498;2023-12-20T01:41:33;100148.36;;;7.82;77.82
50632;BME280;49583;45.590;-122.498;2023-12-20T01:43:45;100151.16;;;7.85;77.68
50632;BME280;49583;45.590;-122.498;2023-12-20T01:46:00;100156.29;;;7.87;77.66
50632;BME280;49583;45.590;-122.498;2023-12-20T01:48:13;100157.41;;;7.89;77.63
50632;BME280;49583;45.590;-122.498;2023-12-20T01:50:27;100161.23;;;7.89;77.60
50632;BME280;49583;45.590;-122.498;2023-12-20T01:52:41;100158.67;;;7.89;77.56
50632;BME280;49583;45.590;-122.498;2023-12-20T01:54:53;100153.00;;;7.89;77.55
50632;BME280;49583;45.590;-122.498;2023-12-20T01:57:12;100159.14;;;7.90;77.40
50632;BME280;49583;45.590;-122.498;2023-12-20T01:59:26;100154.77;;;7.89;77.28
50632;BME280;49583;45.590;-122.498;2023-12-20T02:01:38;100151.97;;;7.88;77.22
50632;BME280;49583;45.590;-122.498;2023-12-20T02:03:52;100148.52;;;7.88;77.23
50632;BME280;49583;45.590;-122.498;2023-12-20T02:06:05;100152.96;;;7.88;77.14
50632;BME280;49583;45.590;-122.498;2023-12-20T02:08:18;100153.72;;;7.87;77.09
50632;BME280;49583;45.590;-122.498;2023-12-20T02:10:30;100148.64;;;7.86;76.97
50632;BME280;49583;45.590;-122.498;2023-12-20T02:12:43;100154.79;;;7.86;77.13
50632;BME280;49583;45.590;-122.498;2023-12-20T02:14:56;100167.83;;;7.87;77.25
50632;BME280;49583;45.590;-122.498;2023-12-20T02:17:08;100171.89;;;7.88;77.21
50632;BME280;49583;45.590;-122.498;2023-12-20T02:19:22;100170.34;;;7.88;77.11
50632;BME280;49583;45.590;-122.498;2023-12-20T02:21:36;100177.27;;;7.88;77.08
50632;BME280;49583;45.590;-122.498;2023-12-20T02:23:48;100175.14;;;7.87;76.98
50632;BME280;49583;45.590;-122.498;2023-12-20T02:26:02;100181.59;;;7.89;76.80
50632;BME280;49583;45.590;-122.498;2023-12-20T02:28:14;100185.48;;;7.90;76.87
50632;BME280;49583;45.590;-122.498;2023-12-20T02:30:27;100194.13;;;7.90;76.62
50632;BME280;49583;45.590;-122.498;2023-12-20T02:32:40;100201.20;;;7.89;76.69
50632;BME280;49583;45.590;-122.498;2023-12-20T02:34:53;100197.05;;;7.87;76.64
50632;BME280;49583;45.590;-122.498;2023-12-20T02:37:08;100203.36;;;7.88;76.52
50632;BME280;49583;45.590;-122.498;2023-12-20T02:39:20;100203.48;;;7.86;76.36
50632;BME280;49583;45.590;-122.498;2023-12-20T02:41:33;100207.27;;;7.86;76.33
50632;BME280;49583;45.590;-122.498;2023-12-20T02:43:45;100204.54;;;7.86;76.40
50632;BME280;49583;45.590;-122.498;2023-12-20T02:45:58;100206.13;;;7.84;76.23
50632;BME280;49583;45.590;-122.498;2023-12-20T02:48:10;100213.89;;;7.83;76.24
50632;BME280;49583;45.590;-122.498;2023-12-20T02:50:23;100215.27;;;7.81;76.24
50632;BME280;49583;45.590;-122.498;2023-12-20T02:52:36;100217.61;;;7.79;76.27
50632;BME280;49583;45.590;-122.498;2023-12-20T02:54:48;100225.49;;;7.77;76.26
50632;BME280;49583;45.590;-122.498;2023-12-20T02:57:01;100230.47;;;7.77;76.34
50632;BME280;49583;45.590;-122.498;2023-12-20T02:59:14;100232.30;;;7.75;76.36
50632;BME280;49583;45.590;-122.498;2023-12-20T03:01:27;100230.95;;;7.73;76.34
50632;BME280;49583;45.590;-122.498;2023-12-20T03:03:40;100232.88;;;7.72;76.30
50632;BME280;49583;45.590;-122.498;2023-12-20T03:05:52;100234.70;;;7.71;76.31
50632;BME280;49583;45.590;-122.498;2023-12-20T03:08:06;100235.17;;;7.69;76.21
50632;BME280;49583;45.590;-122.498;2023-12-20T03:10:18;100235.98;;;7.67;76.17
50632;BME280;49583;45.590;-122.498;2023-12-20T03:12:35;100236.64;;;7.65;76.12
50632;BME280;49583;45.590;-122.498;2023-12-20T03:14:48;100245.83;;;7.62;76.06
50632;BME280;49583;45.590;-122.498;2023-12-20T03:17:00;100247.51;;;7.61;76.07
50632;BME280;49583;45.590;-122.498;2023-12-20T03:19:12;100255.96;;;7.60;76.27
50632;BME280;49583;45.590;-122.498;2023-12-20T03:21:25;100266.84;;;7.59;76.15
50632;BME280;49583;45.590;-122.498;2023-12-20T03:23:37;100268.95;;;7.58;76.10
50632;BME280;49583;45.590;-122.498;2023-12-20T03:25:50;100266.96;;;7.57;76.23
50632;BME280;49583;45.590;-122.498;2023-12-20T03:28:02;100264.23;;;7.55;76.14
50632;BME280;49583;45.590;-122.498;2023-12-20T03:30:16;100265.60;;;7.53;76.16
50632;BME280;49583;45.590;-122.498;2023-12-20T03:32:28;100270.91;;;7.51;76.14
50632;BME280;49583;45.590;-122.498;2023-12-20T03:34:41;100280.48;;;7.51;76.27
50632;BME280;49583;45.590;-122.498;2023-12-20T03:36:54;100280.25;;;7.51;76.38
50632;BME280;49583;45.590;-122.498;2023-12-20T03:39:06;100286.96;;;7.51;76.52
50632;BME280;49583;45.590;-122.498;2023-12-20T03:41:20;100289.07;;;7.52;76.54
50632;BME280;49583;45.590;-122.498;2023-12-20T03:43:32;100291.38;;;7.50;76.34
50632;BME280;49583;45.590;-122.498;2023-12-20T03:45:45;100300.15;;;7.47;76.09
50632;BME280;49583;45.590;-122.498;2023-12-20T03:47:57;100297.32;;;7.43;76.06
50632;BME280;49583;45.590;-122.498;2023-12-20T03:50:10;100296.35;;;7.39;76.11
50632;BME280;49583;45.590;-122.498;2023-12-20T03:52:23;100300.32;;;7.37;76.13
50632;BME280;49583;45.590;-122.498;2023-12-20T03:54:35;100307.30;;;7.34;76.15
50632;BME280;49583;45.590;-122.498;2023-12-20T03:56:48;100313.36;;;7.32;76.08
50632;BME280;49583;45.590;-122.498;2023-12-20T03:59:00;100315.65;;;7.28;76.19
50632;BME280;49583;45.590;-122.498;2023-12-20T04:01:13;100309.52;;;7.26;76.15
50632;BME280;49583;45.590;-122.498;2023-12-20T04:03:26;100308.84;;;7.24;76.31
50632;BME280;49583;45.590;-122.498;2023-12-20T04:05:38;100307.94;;;7.22;76.38
50632;BME280;49583;45.590;-122.498;2023-12-20T04:07:51;100312.00;;;7.23;76.30
50632;BME280;49583;45.590;-122.498;2023-12-20T04:10:05;100311.45;;;7.23;76.38
50632;BME280;49583;45.590;-122.498;2023-12-20T04:12:18;100312.99;;;7.22;76.37
50632;BME280;49583;45.590;-122.498;2023-12-20T04:14:31;100313.09;;;7.23;76.48
50632;BME280;49583;45.590;-122.498;2023-12-20T04:16:43;100311.67;;;7.22;76.52
50632;BME280;49583;45.590;-122.498;2023-12-20T04:18:56;100308.48;;;7.22;76.66
50632;BME280;49583;45.590;-122.498;2023-12-20T04:21:08;100301.17;;;7.22;76.53
50632;BME280;49583;45.590;-122.498;2023-12-20T04:23:21;100301.41;;;7.23;76.53
50632;BME280;49583;45.590;-122.498;2023-12-20T04:25:33;100297.20;;;7.22;76.49
50632;BME280;49583;45.590;-122.498;2023-12-20T04:27:46;100304.11;;;7.22;76.53
50632;BME280;49583;45.590;-122.498;2023-12-20T04:29:58;100302.28;;;7.23;76.67
50632;BME280;49583;45.590;-122.498;2023-12-20T04:32:11;100304.50;;;7.24;76.62
50632;BME280;49583;45.590;-122.498;2023-12-20T04:34:24;100305.69;;;7.25;76.74
50632;BME280;49583;45.590;-122.498;2023-12-20T04:36:40;100312.90;;;7.27;76.63
50632;BME280;49583;45.590;-122.498;2023-12-20T04:38:53;100319.06;;;7.27;76.83
50632;BME280;49583;45.590;-122.498;2023-12-20T04:41:06;100318.94;;;7.29;76.88
50632;BME280;49583;45.590;-122.498;2023-12-20T04:43:18;100319.27;;;7.30;76.91
50632;BME280;49583;45.590;-122.498;2023-12-20T04:45:31;100320.89;;;7.31;76.97
50632;BME280;49583;45.590;-122.498;2023-12-20T04:47:43;100324.81;;;7.32;77.04
50632;BME280;49583;45.590;-122.498;2023-12-20T04:49:57;100327.21;;;7.35;77.26
50632;BME280;49583;45.590;-122.498;2023-12-20T04:52:10;100331.63;;;7.37;77.64
50632;BME280;49583;45.590;-122.498;2023-12-20T04:54:22;100335.73;;;7.39;77.82
50632;BME280;49583;45.590;-122.498;2023-12-20T04:56:35;100339.01;;;7.42;77.96
50632;BME280;49583;45.590;-122.498;2023-12-20T04:58:47;100335.15;;;7.43;78.07
50632;BME280;49583;45.590;-122.498;2023-12-20T05:01:00;100331.19;;;7.44;78.35
50632;BME280;49583;45.590;-122.498;2023-12-20T05:03:13;100336.84;;;7.45;78.43
50632;BME280;49583;45.590;-122.498;2023-12-20T05:05:26;100336.75;;;7.45;78.50
50632;BME280;49583;45.590;-122.498;2023-12-20T05:07:39;100342.63;;;7.46;78.80
50632;BME280;49583;45.590;-122.498;2023-12-20T05:09:52;100338.91;;;7.47;78.83
50632;BME280;49583;45.590;-122.498;2023-12-20T05:12:05;100342.52;;;7.48;79.13
50632;BME280;49583;45.590;-122.498;2023-12-20T05:14:18;100344.40;;;7.48;79.13
50632;BME280;49583;45.590;-122.498;2023-12-20T05:16:31;100343.37;;;7.48;79.42
50632;BME280;49583;45.590;-122.498;2023-12-20T05:18:43;100337.91;;;7.47;79.43
50632;BME280;49583;45.590;-122.498;2023-12-20T05:20:56;100338.20;;;7.47;79.44
50632;BME280;49583;45.590;-122.498;2023-12-20T05:23:09;100338.77;;;7.45;79.48
50632;BME280;49583;45.590;-122.498;2023-12-20T05:25:21;100334.56;;;7.45;79.60
50632;BME280;49583;45.590;-122.498;2023-12-20T05:27:34;100337.52;;;7.45;79.52
50632;BME280;49583;45.590;-122.498;2023-12-20T05:29:46;100338.95;;;7.43;79.55
50632;BME280;49583;45.590;-122.498;2023-12-20T05:32:00;100345.89;;;7.43;79.43
50632;BME280;49583;45.590;-122.498;2023-12-20T05:34:14;100348.66;;;7.42;79.25
50632;BME280;49583;45.590;-122.498;2023-12-20T05:36:26;100347.79;;;7.39;78.93
50632;BME280;49583;45.590;-122.498;2023-12-20T05:38:39;100347.65;;;7.37;78.76
50632;BME280;49583;45.590;-122.498;2023-12-20T05:40:51;100352.29;;;7.35;78.60
50632;BME280;49583;45.590;-122.498;2023-12-20T05:43:03;100361.77;;;7.35;78.50
50632;BME280;49583;45.590;-122.498;2023-12-20T05:45:17;100357.80;;;7.34;78.44
50632;BME280;49583;45.590;-122.498;2023-12-20T05:47:29;100361.14;;;7.34;78.26
50632;BME280;49583;45.590;-122.498;2023-12-20T05:49:42;100363.06;;;7.33;78.32
50632;BME280;49583;45.590;-122.498;2023-12-20T05:51:54;100371.08;;;7.34;78.28
50632;BME280;49583;45.590;-122.498;2023-12-20T05:54:07;100371.16;;;7.31;78.36
50632;BME280;49583;45.590;-122.498;2023-12-20T05:56:19;100368.27;;;7.31;78.36
50632;BME280;49583;45.590;-122.498;2023-12-20T05:58:32;100374.77;;;7.30;78.32
50632;BME280;49583;45.590;-122.498;2023-12-20T06:00:44;100379.14;;;7.28;78.43
50632;BME280;49583;45.590;-122.498;2023-12-20T06:02:57;100386.83;;;7.26;78.34
50632;BME280;49583;45.590;-122.498;2023-12-20T06:05:10;100384.96;;;7.24;78.34
50632;BME280;49583;45.590;-122.498;2023-12-20T06:07:23;100391.81;;;7.22;78.25
50632;BME280;49583;45.590;-122.498;2023-12-20T06:09:35;100391.47;;;7.21;78.34
50632;BME280;49583;45.590;-122.498;2023-12-20T06:11:48;100393.29;;;7.19;78.41
50632;BME280;49583;45.590;-122.498;2023-12-20T06:14:01;100396.84;;;7.18;78.44
50632;BME280;49583;45.590;-122.498;2023-12-20T06:16:13;100400.14;;;7.17;78.49
50632;BME280;49583;45.590;-122.498;2023-12-20T06:18:26;100401.43;;;7.16;78.59
50632;BME280;49583;45.590;-122.498;2023-12-20T06:20:39;100401.79;;;7.15;78.75
50632;BME280;49583;45.590;-122.498;2023-12-20T06:22:51;100401.70;;;7.15;78.96
50632;BME280;49583;45.590;-122.498;2023-12-20T06:25:04;100407.14;;;7.15;79.18
50632;BME280;49583;45.590;-122.498;2023-12-20T06:27:17;100405.60;;;7.15;79.34
50632;BME280;49583;45.590;-122.498;2023-12-20T06:29:29;100403.17;;;7.15;79.47
50632;BME280;49583;45.590;-122.498;2023-12-20T06:31:42;100398.89;;;7.17;79.84
50632;BME280;49583;45.590;-122.498;2023-12-20T06:33:54;100397.70;;;7.19;80.08
50632;BME280;49583;45.590;-122.498;2023-12-20T06:36:12;100399.37;;;7.20;80.36
50632;BME280;49583;45.590;-122.498;2023-12-20T06:38:24;100403.84;;;7.21;80.48
50632;BME280;49583;45.590;-122.498;2023-12-20T06:40:37;100406.71;;;7.21;80.75
50632;BME280;49583;45.590;-122.498;2023-12-20T06:42:50;100409.30;;;7.22;80.92
50632;BME280;49583;45.590;-122.498;2023-12-20T06:45:16;100414.14;;;7.22;80.94
50632;BME280;49583;45.590;-122.498;2023-12-20T06:47:29;100419.36;;;7.22;81.06
50632;BME280;49583;45.590;-122.498;2023-12-20T06:49:42;100420.98;;;7.22;81.14
50632;BME280;49583;45.590;-122.498;2023-12-20T06:51:54;100424.77;;;7.23;81.36
50632;BME280;49583;45.590;-122.498;2023-12-20T06:54:07;100431.14;;;7.23;81.51
50632;BME280;49583;45.590;-122.498;2023-12-20T06:56:19;100432.19;;;7.24;81.47
50632;BME280;49583;45.590;-122.498;2023-12-20T06:58:32;100438.11;;;7.25;81.60
50632;BME280;49583;45.590;-122.498;2023-12-20T07:00:44;100438.09;;;7.24;81.72
50632;BME280;49583;45.590;-122.498;2023-12-20T07:02:56;100440.78;;;7.23;81.68
50632;BME280;49583;45.590;-122.498;2023-12-20T07:05:10;100442.83;;;7.24;81.79
50632;BME280;49583;45.590;-122.498;2023-12-20T07:07:23;100444.44;;;7.23;81.99
50632;BME280;49583;45.590;-122.498;2023-12-20T07:09:36;100443.64;;;7.22;82.01
50632;BME280;49583;45.590;-122.498;2023-12-20T07:11:49;100449.75;;;7.21;82.01
50632;BME280;49583;45.590;-122.498;2023-12-20T07:14:01;100455.55;;;7.20;81.89
50632;BME280;49583;45.590;-122.498;2023-12-20T07:16:14;100452.64;;;7.17;81.95
50632;BME280;49583;45.590;-122.498;2023-12-20T07:18:27;100452.39;;;7.14;81.94
50632;BME280;49583;45.590;-122.498;2023-12-20T07:20:39;100455.80;;;7.11;81.84
50632;BME280;49583;45.590;-122.498;2023-12-20T07:22:51;100459.80;;;7.07;81.76
50632;BME280;49583;45.590;-122.498;2023-12-20T07:25:04;100465.29;;;7.03;81.66
50632;BME280;49583;45.590;-122.498;2023-12-20T07:27:17;100467.63;;;7.01;81.73
50632;BME280;49583;45.590;-122.498;2023-12-20T07:29:30;100467.32;;;6.99;81.92
50632;BME280;49583;45.590;-122.498;2023-12-20T07:31:42;100467.03;;;6.97;81.73
50632;BME280;49583;45.590;-122.498;2023-12-20T07:33:55;100462.31;;;6.93;81.77
50632;BME280;49583;45.590;-122.498;2023-12-20T07:36:08;100458.86;;;6.92;81.75
50632;BME280;49583;45.590;-122.498;2023-12-20T07:38:22;100455.84;;;6.90;81.82
50632;BME280;49583;45.590;-122.498;2023-12-20T07:40:34;100454.54;;;6.88;81.77
50632;BME280;49583;45.590;-122.498;2023-12-20T07:42:47;100456.80;;;6.86;81.93
50632;BME280;49583;45.590;-122.498;2023-12-20T07:45:00;100458.35;;;6.84;81.80
50632;BME280;49583;45.590;-122.498;2023-12-20T07:47:13;100458.20;;;6.81;81.94
50632;BME280;49583;45.590;-122.498;2023-12-20T07:49:30;100461.02;;;6.78;81.85
50632;BME280;49583;45.590;-122.498;2023-12-20T07:51:42;100461.93;;;6.74;81.73
50632;BME280;49583;45.590;-122.498;2023-12-20T07:53:55;100463.73;;;6.70;81.55
50632;BME280;49583;45.590;-122.498;2023-12-20T07:56:15;100462.48;;;6.65;81.72
50632;BME280;49583;45.590;-122.498;2023-12-20T07:58:28;100463.58;;;6.63;81.64
50632;BME280;49583;45.590;-122.498;2023-12-20T08:00:59;100458.46;;;6.59;81.54
50632;BME280;49583;45.590;-122.498;2023-12-20T08:03:12;100455.58;;;6.54;81.66
50632;BME280;49583;45.590;-122.498;2023-12-20T08:05:24;100459.45;;;6.53;81.72
50632;BME280;49583;45.590;-122.498;2023-12-20T08:07:37;100462.05;;;6.50;81.70
50632;BME280;49583;45.590;-122.498;2023-12-20T08:09:50;100470.85;;;6.46;81.58
50632;BME280;49583;45.590;-122.498;2023-12-20T08:12:05;100477.33;;;6.42;81.71
50632;BME280;49583;45.590;-122.498;2023-12-20T08:14:17;100481.88;;;6.39;81.62
50632;BME280;49583;45.590;-122.498;2023-12-20T08:16:30;100492.67;;;6.37;81.83
50632;BME280;49583;45.590;-122.498;2023-12-20T08:18:42;100492.39;;;6.33;82.07
50632;BME280;49583;45.590;-122.498;2023-12-20T08:20:55;100491.52;;;6.32;82.03
50632;BME280;49583;45.590;-122.498;2023-12-20T08:23:10;100489.48;;;6.30;81.93
50632;BME280;49583;45.590;-122.498;2023-12-20T08:25:22;100490.32;;;6.29;82.06
50632;BME280;49583;45.590;-122.498;2023-12-20T08:27:35;100492.01;;;6.27;81.95
50632;BME280;49583;45.590;-122.498;2023-12-20T08:29:49;100493.16;;;6.24;81.80
50632;BME280;49583;45.590;-122.498;2023-12-20T08:32:01;100495.83;;;6.21;81.87
50632;BME280;49583;45.590;-122.498;2023-12-20T08:34:13;100501.02;;;6.18;82.01
50632;BME280;49583;45.590;-122.498;2023-12-20T08:36:26;100502.77;;;6.15;81.95
50632;BME280;49583;45.590;-122.498;2023-12-20T08:38:39;100507.40;;;6.12;81.94
50632;BME280;49583;45.590;-122.498;2023-12-20T08:40:52;100508.40;;;6.09;81.83
50632;BME280;49583;45.590;-122.498;2023-12-20T08:43:04;100506.80;;;6.07;81.89
50632;BME280;49583;45.590;-122.498;2023-12-20T08:45:17;100501.52;;;6.04;82.08
50632;BME280;49583;45.590;-122.498;2023-12-20T08:47:29;100503.98;;;6.01;81.85
50632;BME280;49583;45.590;-122.498;2023-12-20T08:49:42;100505.69;;;5.99;82.02
50632;BME280;49583;45.590;-122.498;2023-12-20T08:51:54;100504.55;;;5.95;81.95
50632;BME280;49583;45.590;-122.498;2023-12-20T08:54:07;100504.86;;;5.91;81.87
50632;BME280;49583;45.590;-122.498;2023-12-20T08:56:19;100507.09;;;5.89;82.09
50632;BME280;49583;45.590;-122.498;2023-12-20T08:58:32;100504.84;;;5.86;81.98
50632;BME280;49583;45.590;-122.498;2023-12-20T09:00:45;100508.38;;;5.82;82.15
50632;BME280;49583;45.590;-122.498;2023-12-20T09:02:58;100516.30;;;5.80;82.13
50632;BME280;49583;45.590;-122.498;2023-12-20T09:05:11;100514.58;;;5.80;82.21
50632;BME280;49583;45.590;-122.498;2023-12-20T09:07:27;100514.30;;;5.81;82.74
50632;BME280;49583;45.590;-122.498;2023-12-20T09:09:40;100515.64;;;5.80;82.67
50632;BME280;49583;45.590;-122.498;2023-12-20T09:11:54;100517.56;;;5.81;82.54
50632;BME280;49583;45.590;-122.498;2023-12-20T09:14:06;100525.31;;;5.80;82.56
50632;BME280;49583;45.590;-122.498;2023-12-20T09:16:19;100524.11;;;5.79;82.46
50632;BME280;49583;45.590;-122.498;2023-12-20T09:18:31;100529.58;;;5.78;82.73
50632;BME280;49583;45.590;-122.498;2023-12-20T09:20:43;100532.27;;;5.77;82.81
50632;BME280;49583;45.590;-122.498;2023-12-20T09:22:58;100532.52;;;5.76;82.54
50632;BME280;49583;45.590;-122.498;2023-12-20T09:25:11;100529.69;;;5.75;82.70
50632;BME280;49583;45.590;-122.498;2023-12-20T09:27:25;100524.65;;;5.73;82.80
50632;BME280;49583;45.590;-122.498;2023-12-20T09:29:38;100525.92;;;5.74;83.05
50632;BME280;49583;45.590;-122.498;2023-12-20T09:31:51;100527.81;;;5.73;83.05
50632;BME280;49583;45.590;-122.498;2023-12-20T09:34:03;100531.52;;;5.73;83.18
50632;BME280;49583;45.590;-122.498;2023-12-20T09:36:16;100534.72;;;5.73;83.29
50632;BME280;49583;45.590;-122.498;2023-12-20T09:38:28;100538.21;;;5.73;83.57
50632;BME280;49583;45.590;-122.498;2023-12-20T09:40:43;100540.00;;;5.73;83.52
50632;BME280;49583;45.590;-122.498;2023-12-20T09:43:01;100539.86;;;5.73;83.58
50632;BME280;49583;45.590;-122.498;2023-12-20T09:45:18;100538.23;;;5.73;83.69
50632;BME280;49583;45.590;-122.498;2023-12-20T09:47:32;100540.88;;;5.74;83.89
50632;BME280;49583;45.590;-122.498;2023-12-20T09:49:46;100550.27;;;5.74;83.72
50632;BME280;49583;45.590;-122.498;2023-12-20T09:51:59;100550.82;;;5.74;83.86
50632;BME280;49583;45.590;-122.498;2023-12-20T09:54:12;100552.89;;;5.73;83.98
50632;BME280;49583;45.590;-122.498;2023-12-20T09:56:26;100556.55;;;5.73;83.74
50632;BME280;49583;45.590;-122.498;2023-12-20T09:58:40;100550.24;;;5.71;84.02
50632;BME280;49583;45.590;-122.498;2023-12-20T10:00:53;100564.43;;;5.72;84.18
50632;BME280;49583;45.590;-122.498;2023-12-20T10:03:08;100563.66;;;5.70;83.77
50632;BME280;49583;45.590;-122.498;2023-12-20T10:05:25;100565.78;;;5.71;84.05
50632;BME280;49583;45.590;-122.498;2023-12-20T10:07:39;100572.46;;;5.71;83.87
50632;BME280;49583;45.590;-122.498;2023-12-20T10:09:52;100574.99;;;5.70;83.82
50632;BME280;49583;45.590;-122.498;2023-12-20T10:12:08;100574.42;;;5.70;84.10
50632;BME280;49583;45.590;-122.498;2023-12-20T10:14:24;100570.31;;;5.68;83.92
50632;BME280;49583;45.590;-122.498;2023-12-20T10:16:36;100575.44;;;5.68;83.92
50632;BME280;49583;45.590;-122.498;2023-12-20T10:18:49;100581.23;;;5.67;83.77
50632;BME280;49583;45.590;-122.498;2023-12-20T10:21:02;100578.48;;;5.65;83.96
50632;BME280;49583;45.590;-122.498;2023-12-20T10:23:15;100580.94;;;5.64;83.76
50632;BME280;49583;45.590;-122.498;2023-12-20T10:25:28;100579.16;;;5.62;83.69
50632;BME280;49583;45.590;-122.498;2023-12-20T10:27:41;100575.80;;;5.60;83.94
50632;BME280;49583;45.590;-122.498;2023-12-20T10:29:54;100578.67;;;5.58;83.76
50632;BME280;49583;45.590;-122.498;2023-12-20T10:32:25;100581.91;;;5.55;83.97
50632;BME280;49583;45.590;-122.498;2023-12-20T10:34:38;100588.27;;;5.52;84.19
50632;BME280;49583;45.590;-122.498;2023-12-20T10:36:51;100592.68;;;5.49;83.80
50632;BME280;49583;45.590;-122.498;2023-12-20T10:39:04;100596.59;;;5.46;84.11
50632;BME280;49583;45.590;-122.498;2023-12-20T10:41:24;100596.55;;;5.45;83.93
50632;BME280;49583;45.590;-122.498;2023-12-20T10:43:38;100598.29;;;5.44;84.04
50632;BME280;49583;45.590;-122.498;2023-12-20T10:45:52;100599.31;;;5.42;83.93
50632;BME280;49583;45.590;-122.498;2023-12-20T10:48:06;100599.69;;;5.40;84.22
50632;BME280;49583;45.590;-122.498;2023-12-20T10:50:20;100594.04;;;5.40;84.15
50632;BME280;49583;45.590;-122.498;2023-12-20T10:52:34;100591.22;;;5.41;84.23
50632;BME280;49583;45.590;-122.498;2023-12-20T10:54:48;100583.81;;;5.40;84.20
50632;BME280;49583;45.590;-122.498;2023-12-20T10:57:02;100580.20;;;5.39;84.23
50632;BME280;49583;45.590;-122.498;2023-12-20T10:59:19;100575.73;;;5.38;84.21
50632;BME280;49583;45.590;-122.498;2023-12-20T11:01:32;100581.80;;;5.37;84.01
50632;BME280;49583;45.590;-122.498;2023-12-20T11:03:51;100583.62;;;5.36;84.39
50632;BME280;49583;45.590;-122.498;2023-12-20T11:06:07;100583.02;;;5.34;84.03
50632;BME280;49583;45.590;-122.498;2023-12-20T11:08:27;100583.01;;;5.34;84.18
50632;BME280;49583;45.590;-122.498;2023-12-20T11:10:47;100578.77;;;5.33;84.27
50632;BME280;49583;45.590;-122.498;2023-12-20T11:13:06;100576.53;;;5.31;84.25
50632;BME280;49583;45.590;-122.498;2023-12-20T11:15:22;100580.68;;;5.30;84.10
50632;BME280;49583;45.590;-122.498;2023-12-20T11:17:36;100581.64;;;5.29;83.98
50632;BME280;49583;45.590;-122.498;2023-12-20T11:20:09;100592.05;;;5.28;84.44